ADDS METAR Data INFO
IDs: Format: Raw Decoded Include TAF

Data at: 1212 UTC 24 Mar 2017

METAR for:EBCI (Charleroi Arpt, --, BX)
Text:EBCI 241150Z 05015KT 8000 BKN016 10/05 Q1026 NOSIG
Temperature: 10.0°C ( 50°F)
Dewpoint: 5.0°C ( 41°F) [RH = 71%]
Pressure (altimeter):30.30 inches Hg (1026.0 mb)
Winds:from the NE (50 degrees) at 17 MPH (15 knots; 7.7 m/s)
Visibility: 5 sm ( 8 km)
Ceiling:1600 feet AGL
Clouds: broken clouds at 1600 feet AGL

TAF for:EBCI (Charleroi Arpt, --, BX) issued at 1110 UTC 24 Mar 2017
Text:TAF EBCI 241110Z 2412/2518 07010KT 9000 FEW012 SCT020
Forecast period:1200 UTC 24 March 2017 to 1800 UTC 25 March 2017
Forecast type:FROM: standard forecast or significant change
Winds:from the ENE (70 degrees) at 12 MPH (10 knots; 5.1 m/s)
Visibility: 6 sm ( 9 km)
Ceiling:at least 12,000 feet AGL
Clouds: few clouds at 1200 feet AGL, scattered clouds at 2000 feet AGL
Text:PROB40 2504/2508 3000 BR MIFG
Forecast period:0400 to 0800 UTC 25 March 2017
Forecast type:PROBABLE: 40 percent likelihood of the following during this time
Visibility: 1.86 sm ( 2.99 km)
Clouds:missing
Weather:BR MIFG (mist, shallow fog)


Page loaded:  12:12 UTC  |   05:12 AM Pacific  |   06:12 AM Mountain  |   07:12 AM Central  |   08:12 AM Eastern

 

ADVISORIES

FORECASTS

FORECASTS

OBSERVATIONS

USER TOOLS

ABOUT US